Daytona Beach, FL

11:08 AM EDT on April 28, 2015 (GMT -0400)
Daytona Beach International | | Change Station
CLOSE
Current Station
Airport
Location: Daytona Beach,
Elevation: 33 ft
Nearby Weather Stations

Elev 33 ft 29.18 °N, 81.06 °W | Updated 11 minutes ago

Rain
Rain
72 °F
Feels Like 72 °F
N
6
Wind Variable Wind from NW

Today
High -- | Low -- °F
--% Chance of Precip.
Yesterday
High -- | Low -- °F
Precip. -- in
6:45 AM 7:58 PM
Waxing Gibbous, 74% visible
Pressure 29.87 in
Visibility 6.0 miles
Clouds Mostly Cloudy 700 ft
Mostly Cloudy 1000 ft
Overcast 11000 ft
Dew Point 70 °F
Humidity 93%
Rainfall 0.10 in
Snow Depth Not available.
UV 3 out of 12
Pollen 8.20 out of 12
Air Quality Not available.
Flu Activity Local Activity
SPECI KDAB 281457Z 32005KT 6SM -RA BR BKN007 BKN010 OVC110 22/21 A2987 RMK AO2 CIG 004V009 P0000 T02220211

More Conditions Fewer Conditions

Pressure 29.87 in
Visibility 6.0 miles
Clouds Mostly Cloudy 700 ft
Mostly Cloudy 1000 ft
Overcast 11000 ft
Dew Point 70 °F
Humidity 93%
Rainfall 0.10 in
Snow Depth Not available.
UV 3 out of 12
Pollen 8.20 out of 12
Air Quality Not available.
Flu Activity Local Activity
SPECI KDAB 281457Z 32005KT 6SM -RA BR BKN007 BKN010 OVC110 22/21 A2987 RMK AO2 CIG 004V009 P0000 T02220211

More Conditions Fewer Conditions

Nowcast | as of 9:27 am EDT on April 28, 2015

Through early afternoon...numerous showers and embedded storms will move across the area at 20 to 30 mph. A few storms may become strong...particularly from Lake Okeechobee to Kissimmee and along the space and Treasure coasts. Periods of heavy rain of one to two inches within a couple of hours can bring nuisance flooding. Stronger storms can bring locally gusty winds of 40 to 50 mph along with small hail. Potential for storms with heavy rain will increase during the afternoon. Additional details...including graphics are available online at: http://www.Srh.NOAA.Gov/mlb/blog.Php

×

10-Day Weather Forecast

Almanac

Astronomy

Apr. 28, 2015 Rise Set
Actual Time
Civil Twilight
Nautical Twilight
Astronomical Twilight
Moon
Length of Visible Light
Length of Day
Tomorrow will be .
, % of the Moon is Illuminated

Today's Extremes

State Highs State Lows

Community

WunderPhotos

Upload Photos

1,817,661 photos uploaded!

WunderBlogs® & News

Nearby

Air Quality

  Air Quality AQ Index Pollutant
Not available.

Snow Depth

Station Depth Elevation

Earthquake Activity

City Distance Mag. Time & Date
Minimum magnitude displayed is 2.5.

Coastal Water Temperatures

Place Temperature

Stations

Nearby Weather Stations

Station Location Temp. Windchill Dew Point Humidity Wind Precip. Elev Updated Type